Mount Pleasant Mills, Pennsylvania
Current Conditions -  °F | °C
As of 11:53 PM on Thursday 27 Nov 2014 (Local Time) from KSEG Reporting Station
Overcast Overcast  
Wind Chill: 27°   Ceiling: 9500
Heat Index: 33°   Visibility: 10mi
Dew Point: 24°   Wind: 7mph
Humidity: 70%   Direction: 270°W
Pressure: 30.12"   Gusts: NA
Location:  40.72°N, 77.02°W
Report Text: KSEG 280453Z AUTO 27006KT 10SM OVC095 01/M04 A3012 RMK AO2 SLP203 T00061044 400221028
Loading
Personal Weather Stations






























Interactive Weather Map New forecast layout! Learn more

10-Day Weather Forecast

Advertisements
Track Severe Weather on mobile